Tropical Cyclones
[Index]
Main Index Home Page Stock Weather Photos Extreme Storms Discussion Storm News and Storm Chasing Reports Tropical Cyclones / Hurricanes / Typhoons Weather Data and Links Wild Fires / Bushfires Weather Observation Techniques Weather Picture Catalogue Tornado Pictures and Reports Stock Video Footage and DVDs for sale
Season 2009-2010 Tropical Cyclone SEAN Track Map
Season 2009-2010 Summaries: [BoM-AU] [JTWC-AU] [JTWC-SIO] [JTWC-SPAC] [JTWC-SH]
<<- Previous TC | BoM 2009-2010 Season | Next TC ->>

click for intensity scale information  Lat/long Grid: Show Hide

 Date Labels: Show Hide

Bureau of Meteorology Tropical Cyclone Data

Name: SEAN
Number: 937 / 200910_13

20 Apr 2010 06:00 UTC to 26 Apr 2010 12:00 UTC

    date/time    lat    long    hPa   cat  kts
2010-04-20 06   10.0   117.5   1006         20          
2010-04-20 12   10.0   117.4   1006         20          
2010-04-20 18   10.0   117.2   1005         20          
2010-04-21 00   10.0   117.0   1004         25          
2010-04-21 06   10.2   116.8   1004         25          
2010-04-21 12   10.6   116.5   1002         25          
2010-04-21 18   11.2   116.2   1002         25          
2010-04-22 00   11.9   115.9   1002         25          
2010-04-22 06   12.3   115.6   1002         25          
2010-04-22 12   12.7   115.3   1000         35          
2010-04-22 15   13.0   114.9    998         35          
2010-04-22 18   13.2   114.7    996         40          
2010-04-23 00   13.5   114.3    994    1    45          
2010-04-23 06   14.0   114.0    990    1    50          
2010-04-23 12   14.5   113.7    990    1    50          
2010-04-23 18   15.1   113.3    988    1    55          
2010-04-24 00   15.7   113.1    988    1    55          
2010-04-24 06   16.5   112.8    988    1    55          
2010-04-24 12   17.1   112.6    990    1    50          
2010-04-24 18   17.3   111.9    996         40          
2010-04-25 00   17.5   111.3    998         35          
2010-04-25 06   18.1   110.5   1000         30          
2010-04-25 12   18.3   109.7   1002         30          
2010-04-25 18   18.3   108.3   1002         30          
2010-04-26 00   18.3   107.0   1004         25          
2010-04-26 06   18.2   105.5   1004         25          
2010-04-26 12   18.2   104.3   1004         25          
Winds are 10-min average.

Tropical cyclone tracks developed by Michael Bath using data from the Bureau of Meteorology and Google Maps.


[Australian Severe Weather index] [Copyright Notice] [Email Contacts] [Search This Site] [Privacy Policy]
Document: tropical_cyclone_sean.htm Updated: 29 June 2017